createdAt,value
2018-12-11T00:01:30.749Z,100748.91
2018-12-11T00:03:38.092Z,100751.75
2018-12-11T00:05:45.385Z,100761.81
2018-12-11T00:07:53.426Z,100754.80
2018-12-11T00:10:01.341Z,100757.68
2018-12-11T00:12:09.398Z,100751.41
2018-12-11T00:22:32.765Z,100756.41
2018-12-11T00:24:37.831Z,100758.77
2018-12-11T00:26:42.702Z,100752.94
2018-12-11T00:28:50.314Z,100753.27
2018-12-11T00:30:59.326Z,100753.27
2018-12-11T00:33:06.803Z,100760.62
2018-12-11T00:35:14.863Z,100750.64
2018-12-11T00:37:22.710Z,100754.52
2018-12-11T00:39:30.655Z,100754.69
2018-12-11T00:41:35.626Z,100752.41
2018-12-11T00:43:47.704Z,100752.80
2018-12-11T00:45:55.331Z,100755.08
2018-12-11T00:48:07.518Z,100753.95
2018-12-11T00:50:12.637Z,100760.50
2018-12-11T00:52:20.454Z,100754.71
2018-12-11T00:54:25.661Z,100760.39
2018-12-11T00:56:33.364Z,100762.34
2018-12-11T00:58:45.311Z,100763.08
2018-12-11T01:00:50.251Z,100759.34
2018-12-11T01:02:58.890Z,100770.60
2018-12-11T01:05:06.706Z,100765.46
2018-12-11T01:07:11.649Z,100764.59
2018-12-11T01:09:19.560Z,100766.63
2018-12-11T01:11:28.291Z,100762.23
2018-12-11T01:13:35.851Z,100763.36
2018-12-11T01:15:40.850Z,100762.70
2018-12-11T01:17:49.794Z,100759.73
2018-12-11T01:19:57.289Z,100761.10
2018-12-11T01:22:05.402Z,100758.80
2018-12-11T01:26:20.580Z,100751.66
2018-12-11T01:28:25.077Z,100753.06
2018-12-11T01:30:29.847Z,100746.28
2018-12-11T01:32:37.871Z,100743.50
2018-12-11T01:34:43.011Z,100750.77
2018-12-11T01:36:50.807Z,100737.88
2018-12-11T01:38:58.583Z,100734.76
2018-12-11T01:41:03.674Z,100748.45
2018-12-11T01:43:08.495Z,100741.27
2018-12-11T01:45:16.328Z,100745.59
2018-12-11T01:47:24.483Z,100746.75
2018-12-11T01:49:32.138Z,100739.56
2018-12-11T01:51:39.963Z,100738.02
2018-12-11T01:53:47.902Z,100738.43
2018-12-11T01:55:55.864Z,100739.20
2018-12-11T01:58:03.683Z,100742.45
2018-12-11T02:00:11.495Z,100745.78
2018-12-11T02:02:19.758Z,100739.27
2018-12-11T02:04:27.411Z,100744.72
2018-12-11T02:06:32.329Z,100748.95
2018-12-11T02:08:37.508Z,100750.52
2018-12-11T02:10:42.244Z,100745.72
2018-12-11T02:12:50.299Z,100744.81
2018-12-11T02:15:03.637Z,100745.36
2018-12-11T02:17:11.178Z,100739.94
2018-12-11T02:19:16.452Z,100741.52
2018-12-11T02:21:23.974Z,100747.33
2018-12-11T02:23:31.942Z,100743.40
2018-12-11T02:25:40.060Z,100753.52
2018-12-11T02:27:44.835Z,100747.19
2018-12-11T02:29:52.774Z,100749.77
2018-12-11T02:31:57.767Z,100752.55
2018-12-11T02:34:05.211Z,100755.84
2018-12-11T02:36:12.944Z,100758.27
2018-12-11T02:38:17.973Z,100762.11
2018-12-11T02:40:22.717Z,100750.75
2018-12-11T02:42:27.567Z,100752.22
2018-12-11T02:44:32.494Z,100753.27
2018-12-11T02:46:40.351Z,100761.02
2018-12-11T02:48:48.526Z,100754.03
2018-12-11T02:50:56.307Z,100761.28
2018-12-11T02:53:04.393Z,100762.99
2018-12-11T02:55:12.143Z,100761.72
2018-12-11T02:57:20.057Z,100747.44
2018-12-11T02:59:27.860Z,100750.69
2018-12-11T03:01:32.812Z,100749.05
2018-12-11T03:03:37.876Z,100750.43
2018-12-11T03:05:42.682Z,100749.85
2018-12-11T03:07:50.544Z,100747.98
2018-12-11T03:10:03.743Z,100743.91
2018-12-11T03:12:12.002Z,100747.56
2018-12-11T03:14:19.786Z,100746.28
2018-12-11T03:16:24.664Z,100732.47
2018-12-11T03:18:32.685Z,100742.03
2018-12-11T03:20:40.652Z,100746.02
2018-12-11T03:22:48.551Z,100736.23
2018-12-11T03:24:56.478Z,100733.78
2018-12-11T03:29:04.907Z,100730.11
2018-12-11T03:33:16.290Z,100744.22
2018-12-11T03:39:36.639Z,100751.74
2018-12-11T03:41:44.294Z,100727.52
2018-12-11T03:43:52.233Z,100739.03
2018-12-11T03:46:00.531Z,100747.56
2018-12-11T03:48:08.096Z,100732.89
2018-12-11T03:50:15.905Z,100739.44
2018-12-11T03:52:21.633Z,100735.33
2018-12-11T03:54:29.617Z,100730.71
2018-12-11T03:56:37.589Z,100727.17
2018-12-11T03:58:45.227Z,100728.00
2018-12-11T04:00:52.960Z,100731.67
2018-12-11T04:03:00.684Z,100725.13
2018-12-11T04:05:06.002Z,100728.06
2018-12-11T04:07:13.404Z,100726.45
2018-12-11T04:09:18.668Z,100710.81
2018-12-11T04:11:26.641Z,100722.64
2018-12-11T04:13:34.383Z,100722.55
2018-12-11T04:15:39.443Z,100725.72
2018-12-11T04:17:47.138Z,100725.00
2018-12-11T04:19:52.137Z,100724.83
2018-12-11T04:22:00.216Z,100732.17
2018-12-11T04:24:08.086Z,100731.62
2018-12-11T04:26:16.109Z,100734.37
2018-12-11T04:28:23.618Z,100718.71
2018-12-11T04:30:31.509Z,100726.88
2018-12-11T04:32:36.329Z,100718.87
2018-12-11T04:34:41.595Z,100724.50
2018-12-11T04:36:49.302Z,100717.97
2018-12-11T04:38:59.239Z,100722.55
2018-12-11T04:41:06.945Z,100730.28
2018-12-11T04:43:12.170Z,100710.54
2018-12-11T04:45:20.030Z,100725.70
2018-12-11T04:47:27.974Z,100732.61
2018-12-11T04:49:32.729Z,100736.38
2018-12-11T04:51:44.339Z,100736.31
2018-12-11T04:53:52.335Z,100731.91
2018-12-11T04:55:57.219Z,100742.64
2018-12-11T04:58:04.921Z,100746.71
2018-12-11T05:00:15.143Z,100744.70
2018-12-11T05:02:23.075Z,100750.82
2018-12-11T05:04:31.001Z,100746.91
2018-12-11T05:06:38.980Z,100753.35
2018-12-11T05:08:43.603Z,100741.29
2018-12-11T05:10:51.450Z,100749.34
2018-12-11T05:12:56.531Z,100750.49
2018-12-11T05:15:01.462Z,100755.22
2018-12-11T05:17:09.067Z,100747.45
2018-12-11T05:19:14.114Z,100748.39
2018-12-11T05:21:21.851Z,100754.48
2018-12-11T05:23:29.683Z,100759.69
2018-12-11T05:25:37.885Z,100762.39
2018-12-11T05:27:42.931Z,100760.91
2018-12-11T05:29:50.418Z,100763.53
2018-12-11T05:31:55.411Z,100763.28
2018-12-11T05:34:00.289Z,100766.38
2018-12-11T05:36:07.699Z,100765.70
2018-12-11T05:38:15.496Z,100775.27
2018-12-11T05:40:23.323Z,100773.98
2018-12-11T05:42:31.134Z,100777.81
2018-12-11T05:44:38.846Z,100778.38
2018-12-11T05:46:46.796Z,100781.45
2018-12-11T05:48:56.748Z,100788.88
2018-12-11T05:51:04.520Z,100783.42
2018-12-11T05:53:12.329Z,100784.70
2018-12-11T05:55:20.135Z,100783.47
2018-12-11T05:57:28.367Z,100792.41
2018-12-11T05:59:36.272Z,100801.61
2018-12-11T06:01:44.359Z,100793.87
2018-12-11T06:03:52.337Z,100794.03
2018-12-11T06:06:00.317Z,100800.86
2018-12-11T06:08:08.262Z,100805.70
2018-12-11T06:10:16.343Z,100792.38
2018-12-11T06:12:21.183Z,100795.23
2018-12-11T06:14:28.872Z,100802.50
2018-12-11T06:16:37.002Z,100799.87
2018-12-11T06:18:45.036Z,100807.41
2018-12-11T06:20:52.793Z,100807.75
2018-12-11T06:23:00.888Z,100812.15
2018-12-11T06:25:09.042Z,100803.97
2018-12-11T06:27:16.669Z,100806.77
2018-12-11T06:29:24.509Z,100810.84
2018-12-11T06:31:32.320Z,100809.72
2018-12-11T06:33:39.825Z,100811.60
2018-12-11T06:35:47.879Z,100811.67
2018-12-11T06:37:55.781Z,100818.27
2018-12-11T06:40:04.699Z,100822.36
2018-12-11T06:42:12.375Z,100827.42
2018-12-11T06:44:20.228Z,100831.11
2018-12-11T06:46:28.027Z,100838.87
2018-12-11T06:48:36.123Z,100839.17
2018-12-11T06:50:43.904Z,100842.55
2018-12-11T06:52:52.266Z,100849.89
2018-12-11T06:54:59.756Z,100859.88
2018-12-11T06:57:07.663Z,100851.41
2018-12-11T06:59:15.428Z,100860.31
2018-12-11T07:01:22.747Z,100847.50
2018-12-11T07:03:30.859Z,100852.80
2018-12-11T07:05:38.361Z,100855.00
2018-12-11T07:07:46.287Z,100857.14
2018-12-11T07:09:54.394Z,100860.20
2018-12-11T07:12:06.486Z,100867.97
2018-12-11T07:14:16.255Z,100862.48
2018-12-11T07:16:24.143Z,100869.34
2018-12-11T07:18:32.282Z,100878.55
2018-12-11T07:20:39.927Z,100873.92
2018-12-11T07:22:47.955Z,100878.38
2018-12-11T07:24:57.702Z,100876.86
2018-12-11T07:27:05.615Z,100894.02
2018-12-11T07:29:13.473Z,100891.70
2018-12-11T07:31:21.655Z,100888.02
2018-12-11T07:33:29.267Z,100895.08
2018-12-11T07:35:36.939Z,100891.20
2018-12-11T07:37:42.094Z,100899.41
2018-12-11T07:39:49.849Z,100906.15
2018-12-11T07:42:01.749Z,100911.06
2018-12-11T07:44:09.619Z,100917.28
2018-12-11T07:46:14.771Z,100910.44
2018-12-11T07:48:19.535Z,100886.59
2018-12-11T07:50:27.338Z,100916.55
2018-12-11T07:52:32.662Z,100927.95
2018-12-11T07:54:37.982Z,100930.41
2018-12-11T07:56:45.700Z,100923.84
2018-12-11T07:58:53.168Z,100942.10
2018-12-11T08:01:01.144Z,100942.63
2018-12-11T08:03:09.007Z,100942.46
2018-12-11T08:05:16.915Z,100944.33
2018-12-11T08:07:24.556Z,100947.94
2018-12-11T08:09:29.747Z,100962.14
2018-12-11T08:11:34.832Z,100953.59
2018-12-11T08:13:43.074Z,100951.80
2018-12-11T08:15:50.723Z,100950.11
2018-12-11T08:17:58.321Z,100955.91
2018-12-11T08:20:10.235Z,100957.72
2018-12-11T08:22:15.109Z,100964.24
2018-12-11T08:24:22.968Z,100968.50
2018-12-11T08:26:30.857Z,100968.30
2018-12-11T08:28:40.551Z,100974.14
2018-12-11T08:30:48.385Z,100977.21
2018-12-11T08:32:56.164Z,100975.48
2018-12-11T08:35:03.953Z,100976.53
2018-12-11T08:37:08.859Z,100989.68
2018-12-11T08:39:14.115Z,100988.30
2018-12-11T08:41:21.742Z,100986.47
2018-12-11T08:43:29.523Z,100997.31
2018-12-11T08:45:34.851Z,100990.48
2018-12-11T08:47:42.693Z,100995.04
2018-12-11T08:49:50.599Z,100999.03
2018-12-11T08:51:58.752Z,100998.55
2018-12-11T08:54:06.712Z,100998.22
2018-12-11T08:56:15.498Z,101002.14
2018-12-11T08:58:20.808Z,101007.06
2018-12-11T09:00:28.606Z,101007.77
2018-12-11T09:02:36.695Z,101012.79
2018-12-11T09:04:44.796Z,101009.73
2018-12-11T09:06:52.854Z,101018.34
2018-12-11T09:08:58.041Z,101018.95
2018-12-11T09:11:05.475Z,101021.22
2018-12-11T09:13:13.379Z,101027.14
2018-12-11T09:15:21.415Z,101028.06
2018-12-11T09:17:28.982Z,101027.92
2018-12-11T09:19:43.825Z,101030.84
2018-12-11T09:21:51.953Z,101027.97
2018-12-11T09:23:59.751Z,101042.18
2018-12-11T09:26:08.457Z,101047.48
2018-12-11T09:28:13.288Z,101046.59
2018-12-11T09:30:21.124Z,101046.13
2018-12-11T09:32:28.967Z,101053.89
2018-12-11T09:34:36.639Z,101055.02
2018-12-11T09:36:44.336Z,101052.38
2018-12-11T09:38:52.639Z,101057.70
2018-12-11T09:41:00.028Z,101051.13
2018-12-11T09:43:07.807Z,101048.36
2018-12-11T09:45:17.084Z,101052.43
2018-12-11T09:47:21.646Z,101049.98
2018-12-11T09:49:30.034Z,101051.18
2018-12-11T09:51:38.545Z,101048.50
2018-12-11T09:53:46.142Z,101054.98
2018-12-11T09:55:58.444Z,101050.87
2018-12-11T09:58:10.510Z,101052.70
2018-12-11T10:00:19.197Z,101051.28
2018-12-11T10:02:28.474Z,101054.34
2018-12-11T10:04:33.400Z,101056.66
2018-12-11T10:06:41.262Z,101062.56
2018-12-11T10:08:49.132Z,101066.48
2018-12-11T10:10:56.943Z,101065.86
2018-12-11T10:13:04.998Z,101061.61
2018-12-11T10:15:09.759Z,101060.45
2018-12-11T10:17:17.839Z,101066.77
2018-12-11T10:19:25.835Z,101069.11
2018-12-11T10:21:33.675Z,101065.91
2018-12-11T10:29:53.086Z,101076.09
2018-12-11T10:34:01.423Z,101076.43
2018-12-11T10:38:12.726Z,101084.14
2018-12-11T10:48:34.109Z,101084.47
2018-12-11T10:50:41.866Z,101093.92
2018-12-11T10:52:46.735Z,101094.62
2018-12-11T10:54:54.495Z,101092.71
2018-12-11T10:57:01.459Z,101090.03
2018-12-11T10:59:10.351Z,101093.92
2018-12-11T11:01:16.748Z,101096.25
2018-12-11T11:03:21.120Z,101104.14
2018-12-11T11:05:26.088Z,101094.95
2018-12-11T11:07:38.159Z,101097.04
2018-12-11T11:09:46.640Z,101099.64
2018-12-11T11:11:52.059Z,101104.54
2018-12-11T11:13:59.906Z,101113.73
2018-12-11T11:16:09.997Z,101104.59
2018-12-11T11:18:17.888Z,101111.19
2018-12-11T11:20:29.354Z,101115.09
2018-12-11T11:22:37.189Z,101114.10
2018-12-11T11:24:45.031Z,101112.98
2018-12-11T11:26:52.923Z,101118.69
2018-12-11T11:28:57.935Z,101113.52
2018-12-11T11:31:05.443Z,101123.25
2018-12-11T11:33:10.551Z,101124.56
2018-12-11T11:35:15.819Z,101128.97
2018-12-11T11:37:25.753Z,101135.53
2018-12-11T11:39:30.779Z,101134.63
2018-12-11T11:41:39.048Z,101133.20
2018-12-11T11:43:43.430Z,101131.00
2018-12-11T11:45:48.562Z,101140.94
2018-12-11T11:48:00.447Z,101139.48
2018-12-11T11:50:13.589Z,101145.00
2018-12-11T11:52:21.069Z,101149.14
2018-12-11T11:54:28.663Z,101140.93
2018-12-11T11:56:36.636Z,101143.97
2018-12-11T11:58:44.575Z,101151.69
2018-12-11T12:07:05.214Z,101161.09
2018-12-11T12:09:12.913Z,101160.06
2018-12-11T12:11:20.865Z,101133.84
2018-12-11T12:13:28.329Z,101164.38
2018-12-11T12:15:36.158Z,101161.39
2018-12-11T12:19:41.498Z,101163.36
2018-12-11T12:23:53.233Z,101173.25
2018-12-11T12:28:04.783Z,101173.74
2018-12-11T12:30:16.743Z,101173.63
2018-12-11T12:34:25.303Z,101176.73
2018-12-11T12:36:33.313Z,101177.98
2018-12-11T12:38:40.862Z,101176.03
2018-12-11T12:40:45.752Z,101186.13
2018-12-11T12:42:51.773Z,101180.42
2018-12-11T12:44:59.306Z,101184.81
2018-12-11T12:47:12.135Z,101179.34
2018-12-11T12:49:17.030Z,101184.77
2018-12-11T12:51:24.850Z,101186.63
2018-12-11T12:53:29.771Z,101183.84
2018-12-11T12:55:37.654Z,101187.55
2018-12-11T12:57:45.603Z,101188.16
2018-12-11T12:59:53.408Z,101186.20
2018-12-11T13:02:01.451Z,101184.66
2018-12-11T13:04:09.267Z,101196.30
2018-12-11T13:06:17.610Z,101195.48
2018-12-11T13:08:25.240Z,101204.62
2018-12-11T13:10:33.756Z,101209.87
2018-12-11T13:12:42.217Z,101201.24
2018-12-11T13:14:46.723Z,101209.70
2018-12-11T13:16:54.245Z,101211.34
2018-12-11T13:19:02.077Z,101216.13
2018-12-11T13:21:13.763Z,101206.83
2018-12-11T13:23:21.642Z,101212.86
2018-12-11T13:25:29.654Z,101213.52
2018-12-11T13:27:37.492Z,101219.56
2018-12-11T13:29:45.116Z,101226.23
2018-12-11T13:31:57.119Z,101224.83
2018-12-11T13:34:04.982Z,101221.84
2018-12-11T13:36:12.771Z,101222.60
2018-12-11T13:38:20.511Z,101223.42
2018-12-11T13:40:28.718Z,101226.03
2018-12-11T13:42:36.177Z,101236.78
2018-12-11T13:44:44.003Z,101241.08
2018-12-11T13:46:52.211Z,101239.06
2018-12-11T13:48:57.856Z,101240.52
2018-12-11T13:51:03.098Z,101242.98
2018-12-11T13:53:14.703Z,101242.31
2018-12-11T13:55:22.883Z,101243.80
2018-12-11T13:57:31.161Z,101251.36
2018-12-11T13:59:36.045Z,101244.84
2018-12-11T14:01:43.666Z,101257.39
2018-12-11T14:03:51.630Z,101252.80
2018-12-11T14:06:03.692Z,101251.13
2018-12-11T14:08:12.642Z,101255.92
2018-12-11T14:10:21.379Z,101260.73
2018-12-11T14:12:26.196Z,101257.80
2018-12-11T14:14:33.935Z,101257.21
2018-12-11T14:16:38.968Z,101256.19
2018-12-11T14:18:47.019Z,101260.58
2018-12-11T14:20:52.231Z,101259.22
2018-12-11T14:23:00.403Z,101260.84
2018-12-11T14:25:08.166Z,101264.75
2018-12-11T14:27:15.993Z,101268.17
2018-12-11T14:29:23.799Z,101260.59
2018-12-11T14:31:31.400Z,101269.26
2018-12-11T14:33:39.557Z,101268.63
2018-12-11T14:35:47.287Z,101266.93
2018-12-11T14:37:55.199Z,101278.98
2018-12-11T14:40:07.324Z,101279.44
2018-12-11T14:42:15.036Z,101275.15
2018-12-11T14:44:19.942Z,101276.66
2018-12-11T14:46:27.576Z,101276.48
2018-12-11T14:48:35.180Z,101277.52
2018-12-11T14:50:42.702Z,101279.16
2018-12-11T14:52:50.462Z,101285.29
2018-12-11T14:54:58.066Z,101282.09
2018-12-11T14:57:06.055Z,101281.70
2018-12-11T14:59:16.214Z,101282.73
2018-12-11T15:01:24.083Z,101280.01
2018-12-11T15:03:31.975Z,101280.02
2018-12-11T15:05:40.236Z,101280.63
2018-12-11T15:07:48.181Z,101283.30
2018-12-11T15:09:55.927Z,101287.09
2018-12-11T15:12:03.954Z,101285.95
2018-12-11T15:14:11.544Z,101292.27
2018-12-11T15:16:19.886Z,101289.14
2018-12-11T15:18:27.735Z,101293.66
2018-12-11T15:20:35.450Z,101296.15
2018-12-11T15:22:43.914Z,101296.03
2018-12-11T15:24:53.511Z,101296.72
2018-12-11T15:27:01.195Z,101301.41
2018-12-11T15:29:08.882Z,101305.72
2018-12-11T15:31:16.548Z,101306.74
2018-12-11T15:33:17.932Z,101307.40
2018-12-11T15:35:29.092Z,101307.03
2018-12-11T15:37:33.684Z,101312.07
2018-12-11T15:39:42.093Z,101306.28
2018-12-11T15:41:50.690Z,101305.72
2018-12-11T15:43:58.403Z,101310.70
2018-12-11T15:46:06.151Z,101310.15
2018-12-11T15:48:14.031Z,101314.00
2018-12-11T15:50:25.548Z,101315.39
2018-12-11T15:52:34.254Z,101316.54
2018-12-11T15:58:51.051Z,101318.78
2018-12-11T16:09:31.459Z,101326.48
2018-12-11T16:11:39.790Z,101325.07
2018-12-11T16:13:47.494Z,101330.50
2018-12-11T16:15:55.435Z,101328.38
2018-12-11T16:18:03.627Z,101331.59
2018-12-11T16:20:11.579Z,101333.71
2018-12-11T16:22:21.618Z,101334.41
2018-12-11T16:24:29.528Z,101337.30
2018-12-11T16:26:37.396Z,101335.22
2018-12-11T16:28:45.308Z,101340.23
2018-12-11T16:30:53.130Z,101342.81
2018-12-11T16:33:00.948Z,101347.81
2018-12-11T16:35:09.098Z,101348.07
2018-12-11T16:37:16.708Z,101347.74
2018-12-11T16:39:21.431Z,101354.27
2018-12-11T16:41:30.383Z,101350.80
2018-12-11T16:43:38.428Z,101363.55
2018-12-11T16:45:43.571Z,101358.41
2018-12-11T16:47:51.464Z,101362.70
2018-12-11T16:49:59.402Z,101362.37
2018-12-11T16:52:13.963Z,101363.98
2018-12-11T16:54:28.827Z,101361.30
2018-12-11T16:56:33.778Z,101361.86
2018-12-11T16:58:41.777Z,101364.31
2018-12-11T17:00:51.677Z,101366.59
2018-12-11T17:02:59.510Z,101367.94
2018-12-11T17:05:07.348Z,101372.92
2018-12-11T17:07:22.326Z,101370.55
2018-12-11T17:09:30.176Z,101372.96
2018-12-11T17:11:37.719Z,101381.44
2018-12-11T17:17:54.570Z,101381.92
2018-12-11T17:26:22.626Z,101390.84
2018-12-11T17:28:32.293Z,101356.84
2018-12-11T17:30:40.343Z,101390.88
2018-12-11T17:32:48.149Z,101395.60
2018-12-11T17:34:57.894Z,101390.84
2018-12-11T17:37:05.888Z,101399.56
2018-12-11T17:39:13.687Z,101400.70
2018-12-11T17:41:21.349Z,101407.44
2018-12-11T17:43:29.098Z,101405.24
2018-12-11T17:45:33.659Z,101412.78
2018-12-11T17:47:43.480Z,101412.77
2018-12-11T17:49:53.787Z,101411.47
2018-12-11T17:52:01.424Z,101414.53
2018-12-11T17:54:11.002Z,101424.80
2018-12-11T17:56:20.411Z,101391.96
2018-12-11T17:58:29.071Z,101418.77
2018-12-11T18:00:36.723Z,101429.00
2018-12-11T18:02:44.490Z,101426.75
2018-12-11T18:04:52.106Z,101427.12
2018-12-11T18:07:06.647Z,101427.41
2018-12-11T18:09:14.843Z,101431.23
2018-12-11T18:11:23.448Z,101433.93
2018-12-11T18:13:31.296Z,101432.78
2018-12-11T18:15:45.827Z,101437.43
2018-12-11T18:17:53.923Z,101434.13
2018-12-11T18:20:02.168Z,101450.84
2018-12-11T18:22:10.446Z,101442.81
2018-12-11T18:24:18.242Z,101443.79
2018-12-11T18:26:26.166Z,101448.06
2018-12-11T18:28:33.966Z,101447.45
2018-12-11T18:30:41.850Z,101453.16
2018-12-11T18:32:49.581Z,101454.88
2018-12-11T18:34:58.074Z,101453.03
2018-12-11T18:37:06.145Z,101458.05
2018-12-11T18:39:08.131Z,101452.22
2018-12-11T18:44:02.735Z,101455.47
2018-12-11T18:46:10.719Z,101426.75
2018-12-11T18:48:19.690Z,101456.58
2018-12-11T18:50:49.045Z,101463.13
2018-12-11T18:53:13.018Z,101461.47
2018-12-11T18:55:20.901Z,101468.39
2018-12-11T18:57:28.743Z,101463.70
2018-12-11T18:59:37.464Z,101462.93
2018-12-11T19:01:50.416Z,101469.74
2018-12-11T19:03:58.295Z,101469.41
2018-12-11T19:06:06.199Z,101466.11
2018-12-11T19:08:14.011Z,101475.44
2018-12-11T19:10:26.898Z,101474.27
2018-12-11T19:12:39.438Z,101476.55
2018-12-11T19:15:04.687Z,101451.36
2018-12-11T19:17:17.113Z,101489.13
2018-12-11T19:19:30.036Z,101488.80
2018-12-11T19:21:38.097Z,101492.16
2018-12-11T19:23:48.931Z,101492.64
2018-12-11T19:26:01.649Z,101494.96
2018-12-11T19:28:14.605Z,101498.30
2018-12-11T19:30:22.495Z,101502.66
2018-12-11T19:32:35.299Z,101497.84
2018-12-11T19:34:44.237Z,101505.14
2018-12-11T19:36:55.341Z,101510.88
2018-12-11T19:41:57.658Z,101506.39
2018-12-11T19:46:44.168Z,101513.98
2018-12-11T19:48:53.253Z,101516.26
2018-12-11T19:51:05.894Z,101510.49
2018-12-11T19:55:48.570Z,101516.02
2018-12-11T19:57:59.586Z,101514.50
2018-12-11T20:00:08.853Z,101522.39
2018-12-11T20:02:16.483Z,101525.25
2018-12-11T20:04:31.687Z,101528.91
2018-12-11T20:09:21.482Z,101536.95
2018-12-11T20:11:30.385Z,101542.49
2018-12-11T20:13:38.074Z,101547.28
2018-12-11T20:15:57.686Z,101544.58
2018-12-11T20:18:13.060Z,101549.34
2018-12-11T20:20:26.185Z,101537.41
2018-12-11T20:25:11.079Z,101552.56
2018-12-11T20:27:18.967Z,101556.86
2018-12-11T20:29:26.508Z,101561.12
2018-12-11T20:31:39.292Z,101560.97
2018-12-11T20:33:50.883Z,101563.54
2018-12-11T20:36:25.392Z,101562.34
2018-12-11T20:38:58.167Z,101567.72
2018-12-11T20:41:06.175Z,101575.11
2018-12-11T20:43:14.339Z,101572.43
2018-12-11T20:45:26.874Z,101570.72
2018-12-11T20:47:34.693Z,101580.22
2018-12-11T20:49:47.600Z,101576.47
2018-12-11T20:52:08.049Z,101578.20
2018-12-11T20:54:15.844Z,101579.92
2018-12-11T20:56:45.718Z,101582.06
2018-12-11T20:58:58.321Z,101584.73
2018-12-11T21:01:06.104Z,101589.56
2018-12-11T21:03:21.369Z,101589.23
2018-12-11T21:09:56.802Z,101589.27
2018-12-11T21:24:48.208Z,101604.52
2018-12-11T21:35:23.183Z,101604.39
2018-12-11T21:37:38.097Z,101609.06
2018-12-11T21:39:53.698Z,101600.13
2018-12-11T21:42:08.839Z,101602.98
2018-12-11T21:44:17.499Z,101602.28
2018-12-11T21:46:32.186Z,101603.41
2018-12-11T21:48:48.814Z,101609.34
2018-12-11T21:50:58.054Z,101609.16
2018-12-11T21:53:12.939Z,101611.66
2018-12-11T21:55:14.609Z,101611.38
2018-12-11T21:57:22.236Z,101617.79
2018-12-11T21:59:29.921Z,101613.27
2018-12-11T22:01:44.287Z,101615.56
2018-12-11T22:03:56.436Z,101620.43
2018-12-11T22:06:05.294Z,101618.95
2018-12-11T22:08:13.605Z,101613.79
2018-12-11T22:10:28.640Z,101621.83
2018-12-11T22:12:40.727Z,101629.27
2018-12-11T22:14:50.522Z,101624.83
2018-12-11T22:16:58.728Z,101630.11
2018-12-11T22:19:07.445Z,101626.13
2018-12-11T22:21:22.306Z,101624.72
2018-12-11T22:23:30.360Z,101620.33
2018-12-11T22:25:39.980Z,101620.50
2018-12-11T22:27:54.755Z,101624.38
2018-12-11T22:30:07.131Z,101624.58
2018-12-11T22:32:15.076Z,101628.36
2018-12-11T22:34:23.501Z,101632.07
2018-12-11T22:36:38.723Z,101635.98
2018-12-11T22:38:47.770Z,101632.09
2018-12-11T22:41:02.724Z,101632.58
2018-12-11T22:43:15.796Z,101636.05
2018-12-11T22:45:24.735Z,101633.45
2018-12-11T22:47:33.349Z,101630.25
2018-12-11T22:49:41.835Z,101631.02
2018-12-11T22:51:51.780Z,101644.91
2018-12-11T22:54:00.715Z,101648.47
2018-12-11T22:58:49.858Z,101645.62
2018-12-11T23:00:59.160Z,101651.68
2018-12-11T23:03:09.019Z,101622.49
2018-12-11T23:05:18.766Z,101646.08
2018-12-11T23:07:27.491Z,101653.33
2018-12-11T23:09:37.516Z,101660.32
2018-12-11T23:11:58.956Z,101662.45
2018-12-11T23:14:07.012Z,101666.48
2018-12-11T23:16:21.739Z,101665.98
2018-12-11T23:18:31.888Z,101664.36
2018-12-11T23:20:46.211Z,101667.14
2018-12-11T23:22:54.368Z,101667.98
2018-12-11T23:25:08.960Z,101665.02
2018-12-11T23:27:16.948Z,101671.86
2018-12-11T23:29:25.311Z,101677.37
2018-12-11T23:31:33.234Z,101678.23
2018-12-11T23:33:40.774Z,101679.19
2018-12-11T23:35:49.058Z,101679.80
2018-12-11T23:37:56.574Z,101678.67
2018-12-11T23:40:06.419Z,101685.97
2018-12-11T23:42:18.360Z,101681.97
2018-12-11T23:44:31.851Z,101678.70
2018-12-11T23:46:40.470Z,101684.57
2018-12-11T23:48:49.768Z,101690.41
2018-12-11T23:50:57.901Z,101692.98
2018-12-11T23:53:07.696Z,101694.94
2018-12-11T23:55:17.593Z,101697.19
2018-12-11T23:57:25.473Z,101693.28
2018-12-11T23:59:35.410Z,101700.26
